Time;durP1;ratioP1;P1;durP2;ratioP2;P2;SDS_P1;SDS_P2;PMS_P1;PMS_P2;Temp;Humidity;BMP_temperature;BMP_pressure;BME280_temperature;BME280_humidity;BME280_pressure;Samples;Min_cycle;Max_cycle;Signal;HPM_P1;HPM_P2
2022/07/07 00:02:02;;;;;;;1.83;1.20;;;25.00;99.90;;;;;;4943701;29;20223;-96
2022/07/07 00:04:41;;;;;;;3.57;1.40;;;24.90;99.90;;;;;;4942794;29;20219;-96
2022/07/07 00:07:12;;;;;;;1.40;1.30;;;24.70;99.90;;;;;;4943049;29;20212;-96
2022/07/07 00:09:45;;;;;;;2.00;1.10;;;24.60;99.90;;;;;;4945875;28;20208;-96
2022/07/07 00:12:17;;;;;;;2.67;1.37;;;23.80;99.90;;;;;;4941806;29;20223;-96
2022/07/07 00:14:51;;;;;;;1.53;1.13;;;23.50;99.90;;;;;;4941489;29;20240;-96
2022/07/07 00:17:23;;;;;;;1.37;1.10;;;23.60;99.90;;;;;;4943277;29;20208;-96
2022/07/07 00:19:57;;;;;;;1.43;1.33;;;23.60;99.90;;;;;;4944032;29;20267;-96
2022/07/07 00:22:37;;;;;;;1.90;1.40;;;23.60;99.90;;;;;;4945638;29;20216;-96
2022/07/07 00:25:14;;;;;;;1.63;1.47;;;23.70;99.90;;;;;;4945570;29;20243;-96
2022/07/07 00:27:47;;;;;;;1.20;1.10;;;23.50;99.90;;;;;;4942149;29;20287;-96
2022/07/07 00:30:19;;;;;;;2.50;1.03;;;23.40;99.90;;;;;;4940841;29;20276;-96
2022/07/07 00:32:50;;;;;;;1.77;1.27;;;23.70;99.90;;;;;;4945297;28;20213;-96
2022/07/07 00:35:28;;;;;;;0.93;0.83;;;24.00;99.90;;;;;;4941019;29;20270;-96
2022/07/07 00:38:00;;;;;;;1.43;1.30;;;23.80;99.90;;;;;;4939886;29;20215;-96
2022/07/07 00:40:35;;;;;;;1.50;1.30;;;23.70;99.90;;;;;;4939202;29;20223;-96
2022/07/07 00:43:08;;;;;;;1.33;1.10;;;23.60;99.90;;;;;;4940538;29;20208;-96
2022/07/07 00:45:39;;;;;;;1.97;1.40;;;23.70;99.90;;;;;;4941281;29;20231;-96
2022/07/07 00:48:11;;;;;;;1.13;1.00;;;23.50;99.90;;;;;;4940969;29;20205;-96
2022/07/07 00:50:47;;;;;;;2.03;1.40;;;23.30;99.90;;;;;;4942438;29;20212;-96
2022/07/07 00:53:18;;;;;;;1.43;1.13;;;23.60;99.90;;;;;;4942930;29;20275;-96
2022/07/07 00:55:49;;;;;;;1.90;1.37;;;23.70;99.90;;;;;;4941278;29;20244;-96
2022/07/07 00:58:21;;;;;;;1.30;1.20;;;23.50;99.90;;;;;;4941987;29;20216;-96
2022/07/07 01:01:10;;;;;;;1.33;1.23;;;23.60;99.90;;;;;;4941995;29;20219;-96
2022/07/07 01:03:43;;;;;;;0.80;0.80;;;23.20;99.90;;;;;;4945371;29;20216;-96
2022/07/07 01:06:19;;;;;;;1.30;1.20;;;23.30;99.90;;;;;;4944646;29;20212;-96
2022/07/07 01:08:59;;;;;;;2.90;1.30;;;23.30;99.90;;;;;;4948162;29;20215;-96
2022/07/07 01:11:48;;;;;;;1.30;1.20;;;22.90;99.90;;;;;;4957913;28;20208;-96
2022/07/07 01:17:19;;;;;;;1.53;1.30;;;23.00;99.90;;;;;;4959278;28;20228;-96
2022/07/07 01:20:07;;;;;;;1.40;1.30;;;22.90;99.90;;;;;;4954219;28;20228;-96
2022/07/07 01:23:26;;;;;;;1.23;1.17;;;22.60;99.90;;;;;;4946653;29;20279;-96
2022/07/07 01:26:34;;;;;;;1.40;1.20;;;22.80;99.90;;;;;;4951925;29;20239;-96
2022/07/07 01:29:08;;;;;;;3.70;1.40;;;22.70;99.90;;;;;;4947071;29;20219;-96
2022/07/07 01:31:47;;;;;;;1.50;1.40;;;22.60;99.90;;;;;;4943749;29;20208;-96
2022/07/07 01:34:21;;;;;;;1.53;1.20;;;22.50;99.90;;;;;;4943500;29;20232;-96
2022/07/07 01:36:53;;;;;;;1.53;1.33;;;22.50;99.90;;;;;;4947149;29;20216;-96
2022/07/07 01:39:27;;;;;;;2.53;1.30;;;22.40;99.90;;;;;;4952671;29;20219;-96
2022/07/07 01:42:01;;;;;;;1.37;1.27;;;22.30;99.90;;;;;;4947666;29;20208;-96
2022/07/07 01:44:33;;;;;;;1.60;1.40;;;22.10;99.90;;;;;;4946702;29;20784;-96
2022/07/07 01:47:07;;;;;;;2.33;1.23;;;22.00;99.90;;;;;;4945956;29;20220;-96
2022/07/07 01:49:39;;;;;;;1.90;1.53;;;22.00;99.90;;;;;;4945257;29;20216;-96
2022/07/07 01:52:13;;;;;;;1.97;1.50;;;22.00;99.90;;;;;;4944930;29;20295;-96
2022/07/07 01:54:45;;;;;;;1.83;1.30;;;22.30;99.90;;;;;;4945362;29;20651;-96
2022/07/07 01:57:27;;;;;;;1.40;1.30;;;22.60;99.90;;;;;;4946513;29;20235;-96
2022/07/07 02:00:00;;;;;;;1.67;1.20;;;22.50;99.90;;;;;;4946398;29;20199;-96
2022/07/07 02:02:35;;;;;;;1.50;1.30;;;22.30;99.90;;;;;;4929019;29;20552;-96
2022/07/07 02:05:17;;;;;;;2.90;1.40;;;22.40;99.90;;;;;;4952087;29;20209;-96
2022/07/07 02:08:13;;;;;;;2.40;1.23;;;22.30;99.90;;;;;;4955232;28;20307;-96
2022/07/07 02:11:15;;;;;;;1.67;1.10;;;22.20;99.90;;;;;;4949543;29;20210;-96
2022/07/07 02:14:31;;;;;;;2.03;1.30;;;22.00;99.90;;;;;;4955044;28;20204;-96
2022/07/07 02:17:25;;;;;;;1.60;1.50;;;22.00;99.90;;;;;;4952855;29;20215;-96
2022/07/07 02:22:48;;;;;;;2.47;1.33;;;21.90;99.90;;;;;;4952519;29;20212;-96
2022/07/07 02:39:54;;;;;;;1.10;1.00;;;21.70;99.90;;;;;;4995438;28;20199;-96
2022/07/07 02:45:12;;;;;;;2.80;1.47;;;21.80;99.90;;;;;;5263033;23;20269;-96
2022/07/07 02:47:54;;;;;;;1.43;1.33;;;21.80;99.90;;;;;;4992346;28;20211;-96
2022/07/07 03:00:25;;;;;;;1.00;1.00;;;21.50;99.90;;;;;;4981727;28;20214;-96
2022/07/07 03:03:01;;;;;;;2.50;1.50;;;21.50;99.90;;;;;;4991602;28;20234;-96
2022/07/07 03:05:51;;;;;;;3.00;1.40;;;21.50;99.90;;;;;;4991883;28;20211;-96
2022/07/07 03:14:39;;;;;;;1.90;1.40;;;21.40;99.90;;;;;;4990198;28;20203;-96
2022/07/07 03:17:52;;;;;;;1.67;1.50;;;21.20;99.90;;;;;;4990984;28;20286;-96
2022/07/07 03:20:54;;;;;;;2.37;1.73;;;21.20;99.90;;;;;;4989283;28;20233;-96
2022/07/07 03:29:21;;;;;;;1.33;1.10;;;21.00;99.90;;;;;;4992197;28;20233;-96
2022/07/07 03:32:51;;;;;;;3.30;1.30;;;21.00;99.90;;;;;;4990503;28;20207;-96
2022/07/07 03:45:02;;;;;;;1.30;1.17;;;20.70;99.90;;;;;;4997929;28;20223;-96
2022/07/07 04:00:15;;;;;;;1.80;1.27;;;20.50;99.90;;;;;;4989598;28;20308;-96
2022/07/07 04:08:50;;;;;;;2.27;1.77;;;20.30;99.90;;;;;;4991683;28;20655;-96
2022/07/07 04:20:33;;;;;;;2.63;1.63;;;20.30;99.90;;;;;;4992373;28;20214;-96
2022/07/07 04:23:06;;;;;;;1.80;1.43;;;20.20;99.90;;;;;;4987130;28;20217;-96
2022/07/07 04:25:55;;;;;;;1.43;1.33;;;20.10;99.90;;;;;;4989408;28;20217;-96
2022/07/07 04:28:29;;;;;;;2.17;1.47;;;20.10;99.90;;;;;;4990275;28;20203;-96
2022/07/07 04:37:08;;;;;;;4.13;1.40;;;20.00;99.90;;;;;;4990154;28;20230;-96
2022/07/07 04:42:38;;;;;;;2.13;1.87;;;19.80;99.90;;;;;;4983024;28;20201;-96
2022/07/07 04:45:11;;;;;;;3.00;1.70;;;19.70;99.90;;;;;;4959196;28;20215;-96
2022/07/07 04:47:44;;;;;;;2.33;1.80;;;19.70;99.90;;;;;;4965002;29;20207;-96
2022/07/07 04:50:22;;;;;;;2.90;2.03;;;19.60;99.90;;;;;;4962495;28;20211;-96
2022/07/07 04:53:01;;;;;;;2.77;1.90;;;19.50;99.90;;;;;;4952346;29;20203;-96
2022/07/07 04:55:37;;;;;;;2.67;2.17;;;19.50;99.90;;;;;;4967603;28;20232;-96
2022/07/07 04:58:09;;;;;;;2.80;1.90;;;19.50;99.90;;;;;;4967537;29;20724;-96
2022/07/07 05:00:40;;;;;;;2.60;1.90;;;19.50;99.90;;;;;;4961392;28;20219;-96
2022/07/07 05:03:12;;;;;;;2.70;1.87;;;19.50;99.90;;;;;;4964137;28;20233;-96
2022/07/07 05:05:44;;;;;;;3.33;2.07;;;19.40;99.90;;;;;;4980351;28;20294;-96
2022/07/07 05:08:20;;;;;;;3.37;1.83;;;19.30;99.90;;;;;;4980076;28;20230;-96
2022/07/07 05:10:52;;;;;;;2.63;2.00;;;19.20;99.90;;;;;;4983709;28;20210;-96
2022/07/07 05:13:23;;;;;;;3.10;1.90;;;19.20;99.90;;;;;;4984115;28;20227;-96
2022/07/07 05:16:06;;;;;;;2.50;1.70;;;19.10;99.90;;;;;;4984191;28;20241;-96
2022/07/07 05:18:38;;;;;;;2.13;1.90;;;19.10;99.90;;;;;;4987238;28;20211;-96
2022/07/07 05:21:12;;;;;;;1.70;1.60;;;18.90;99.90;;;;;;4991412;28;20289;-96
2022/07/07 05:27:39;;;;;;;1.97;1.50;;;18.70;99.90;;;;;;4998117;28;20203;-96
2022/07/07 05:30:53;;;;;;;2.50;1.67;;;18.60;99.90;;;;;;4992023;28;20210;-96
2022/07/07 05:33:25;;;;;;;1.87;1.43;;;18.60;99.90;;;;;;5096846;23;20245;-96
2022/07/07 05:39:00;;;;;;;1.67;1.33;;;18.50;99.90;;;;;;4988770;28;20211;-96
2022/07/07 05:49:34;;;;;;;2.43;1.50;;;18.40;99.90;;;;;;4964057;29;20237;-96
2022/07/07 05:52:08;;;;;;;1.53;1.40;;;18.40;99.90;;;;;;4963214;29;20203;-96
2022/07/07 05:54:40;;;;;;;1.70;1.47;;;18.40;99.90;;;;;;4967525;28;20215;-96
2022/07/07 05:57:12;;;;;;;2.47;1.60;;;18.40;99.90;;;;;;4964445;28;20293;-96
2022/07/07 05:59:45;;;;;;;2.70;1.87;;;18.30;99.90;;;;;;4965568;29;20211;-96
2022/07/07 06:02:17;;;;;;;2.53;1.70;;;18.20;99.90;;;;;;4964687;29;20618;-96
2022/07/07 06:04:52;;;;;;;2.07;1.83;;;18.10;99.90;;;;;;4964065;28;20219;-96
2022/07/07 06:07:27;;;;;;;3.63;2.10;;;18.10;99.90;;;;;;4969491;28;20278;-96
2022/07/07 06:10:11;;;;;;;1.93;1.63;;;18.00;99.90;;;;;;5004088;23;20261;-96
2022/07/07 06:12:43;;;;;;;3.43;2.00;;;17.90;99.90;;;;;;5000391;28;20199;-96
2022/07/07 06:15:27;;;;;;;3.00;2.20;;;18.00;99.90;;;;;;4999746;28;20254;-96
2022/07/07 06:18:00;;;;;;;2.93;2.00;;;18.00;99.90;;;;;;4997721;28;20246;-96
2022/07/07 06:20:42;;;;;;;2.10;1.90;;;18.00;99.90;;;;;;4980547;28;20202;-96
2022/07/07 06:23:18;;;;;;;2.37;1.90;;;17.90;99.90;;;;;;4983430;28;20206;-96
2022/07/07 06:25:50;;;;;;;2.83;2.00;;;17.90;99.90;;;;;;4981883;28;20321;-96
2022/07/07 06:28:22;;;;;;;3.23;2.07;;;17.90;99.90;;;;;;4966275;28;20260;-96
2022/07/07 06:30:55;;;;;;;3.23;1.90;;;17.90;99.90;;;;;;4981406;28;20216;-96
2022/07/07 06:33:28;;;;;;;2.77;2.10;;;17.80;99.90;;;;;;4982178;28;20211;-96
2022/07/07 06:36:03;;;;;;;2.87;2.07;;;17.80;99.90;;;;;;4983114;28;20231;-96
2022/07/07 06:38:36;;;;;;;4.37;2.03;;;17.80;99.90;;;;;;4984756;28;20266;-96
2022/07/07 06:41:11;;;;;;;3.90;2.10;;;17.80;99.90;;;;;;4989624;28;20207;-96
2022/07/07 06:43:42;;;;;;;2.43;1.97;;;17.80;99.90;;;;;;4997914;28;20207;-96
2022/07/07 06:46:14;;;;;;;2.30;1.83;;;17.70;99.90;;;;;;4998858;28;20321;-96
2022/07/07 06:48:50;;;;;;;2.33;2.00;;;17.70;99.90;;;;;;4985567;28;20259;-96
2022/07/07 06:54:24;;;;;;;3.27;1.70;;;17.70;99.90;;;;;;5387981;23;20238;-96
2022/07/07 06:56:56;;;;;;;1.87;1.57;;;17.70;99.90;;;;;;4994846;28;20242;-96
2022/07/07 06:59:28;;;;;;;2.47;1.40;;;17.80;99.90;;;;;;4991073;28;20219;-96
2022/07/07 07:02:00;;;;;;;1.80;1.60;;;17.80;99.90;;;;;;4987279;28;20206;-96
2022/07/07 07:04:32;;;;;;;1.97;1.50;;;17.70;99.90;;;;;;4967355;28;20593;-96
2022/07/07 07:07:04;;;;;;;3.07;1.53;;;17.70;99.90;;;;;;4984276;28;20584;-96
2022/07/07 07:09:39;;;;;;;1.83;1.43;;;17.70;99.90;;;;;;4984640;28;20330;-96
2022/07/07 07:12:11;;;;;;;2.87;1.70;;;17.60;99.90;;;;;;5002150;28;20209;-95
2022/07/07 07:14:43;;;;;;;2.70;1.60;;;17.50;99.90;;;;;;5015169;28;20237;-95
2022/07/07 07:17:16;;;;;;;2.37;1.70;;;17.50;99.90;;;;;;5011781;28;20226;-96
2022/07/07 07:19:48;;;;;;;2.07;1.80;;;17.50;99.90;;;;;;5007093;28;20266;-96
2022/07/07 07:22:21;;;;;;;3.63;1.80;;;17.50;99.90;;;;;;5003271;28;20211;-96
2022/07/07 07:24:55;;;;;;;1.83;1.50;;;17.50;99.90;;;;;;5003101;28;20588;-96
2022/07/07 07:27:26;;;;;;;2.27;1.60;;;17.50;99.90;;;;;;5001870;28;20682;-96
2022/07/07 07:29:57;;;;;;;2.37;1.50;;;17.50;99.90;;;;;;5001798;28;20217;-96
2022/07/07 07:32:30;;;;;;;3.27;1.40;;;17.50;99.90;;;;;;5002323;28;20218;-96
2022/07/07 07:35:02;;;;;;;1.87;1.30;;;17.50;99.90;;;;;;5000798;28;20248;-96
2022/07/07 07:37:34;;;;;;;1.60;1.03;;;17.50;99.90;;;;;;4986153;28;20264;-96
2022/07/07 07:40:12;;;;;;;5.73;1.00;;;17.50;99.90;;;;;;5001050;28;20245;-96
2022/07/07 07:42:45;;;;;;;1.63;1.20;;;17.50;99.90;;;;;;4983092;28;20265;-96
2022/07/07 07:45:17;;;;;;;2.23;1.10;;;17.40;99.90;;;;;;4981601;28;20211;-96
2022/07/07 07:47:49;;;;;;;1.10;0.83;;;17.40;99.90;;;;;;4981840;28;20242;-96
2022/07/07 07:50:22;;;;;;;1.27;0.90;;;17.40;99.90;;;;;;4980669;28;20211;-96
2022/07/07 07:52:54;;;;;;;1.77;1.07;;;17.40;99.90;;;;;;4982701;28;20227;-96
2022/07/07 07:55:28;;;;;;;2.20;1.10;;;17.40;99.90;;;;;;4982333;28;20273;-95
2022/07/07 07:58:00;;;;;;;1.67;1.00;;;17.40;99.90;;;;;;4982129;28;20235;-95
2022/07/07 08:00:32;;;;;;;1.83;1.03;;;17.40;99.90;;;;;;4981725;28;20226;-96
2022/07/07 08:03:08;;;;;;;2.17;1.03;;;17.40;99.90;;;;;;4983630;28;20211;-96
2022/07/07 08:05:40;;;;;;;1.40;0.90;;;17.40;99.90;;;;;;4984183;28;20243;-95
2022/07/07 08:08:17;;;;;;;3.17;1.10;;;17.30;99.90;;;;;;4984904;28;20234;-96
2022/07/07 08:10:52;;;;;;;2.70;1.13;;;17.40;99.90;;;;;;4980105;28;20219;-96
2022/07/07 08:13:23;;;;;;;0.80;0.70;;;17.40;99.90;;;;;;4981305;28;20573;-95
2022/07/07 08:15:55;;;;;;;4.30;1.00;;;17.40;99.90;;;;;;4980514;28;20218;-96
2022/07/07 08:18:27;;;;;;;1.23;0.80;;;17.40;99.90;;;;;;4982104;28;20234;-96
2022/07/07 08:20:58;;;;;;;1.17;0.70;;;17.30;99.90;;;;;;4979377;28;20223;-96
2022/07/07 08:23:30;;;;;;;2.13;0.73;;;17.30;99.90;;;;;;4983357;28;20699;-96
2022/07/07 08:26:08;;;;;;;1.00;0.80;;;17.30;99.90;;;;;;4981842;28;20219;-95
2022/07/07 08:28:47;;;;;;;0.90;0.77;;;17.40;99.90;;;;;;4981749;28;20211;-96
2022/07/07 08:31:32;;;;;;;4.70;0.77;;;17.40;99.90;;;;;;4991432;28;20267;-96
2022/07/07 08:34:04;;;;;;;1.27;0.80;;;17.30;99.90;;;;;;4983000;28;20207;-96
2022/07/07 08:36:35;;;;;;;5.10;1.20;;;17.30;99.90;;;;;;4984183;28;20246;-96
2022/07/07 08:39:06;;;;;;;0.93;0.80;;;17.30;99.90;;;;;;4980245;28;20214;-96
2022/07/07 08:41:40;;;;;;;2.70;0.80;;;17.30;99.90;;;;;;4978925;28;20215;-95
2022/07/07 08:44:12;;;;;;;1.03;0.80;;;17.30;99.90;;;;;;4979807;28;20229;-96
2022/07/07 08:46:44;;;;;;;1.93;0.80;;;17.30;99.90;;;;;;4979999;28;20237;-96
2022/07/07 08:49:43;;;;;;;1.60;0.70;;;17.30;99.90;;;;;;4979991;28;20235;-96
2022/07/07 08:52:17;;;;;;;1.07;0.70;;;17.30;99.90;;;;;;4980046;28;20218;-96
2022/07/07 08:54:51;;;;;;;4.63;1.00;;;17.30;99.90;;;;;;4980398;28;20226;-96
2022/07/07 08:57:25;;;;;;;1.70;0.90;;;17.40;99.90;;;;;;4990158;28;20238;-96
2022/07/07 09:00:04;;;;;;;1.07;0.80;;;17.30;99.90;;;;;;4996725;28;20197;-96
2022/07/07 09:02:36;;;;;;;2.63;0.90;;;17.20;99.90;;;;;;4997074;28;20210;-96
2022/07/07 09:05:08;;;;;;;1.63;0.97;;;17.20;99.90;;;;;;5011538;28;20210;-96
2022/07/07 09:07:50;;;;;;;1.90;0.80;;;17.10;99.90;;;;;;5000950;28;20215;-96
2022/07/07 09:10:37;;;;;;;1.30;0.90;;;17.00;99.90;;;;;;4992250;28;20218;-95
2022/07/07 09:13:23;;;;;;;0.97;0.70;;;17.00;99.90;;;;;;4963353;28;20215;-95
2022/07/07 09:15:56;;;;;;;1.53;0.67;;;17.10;99.90;;;;;;4960934;28;20219;-95
2022/07/07 09:18:35;;;;;;;5.03;0.90;;;17.10;99.90;;;;;;4960265;28;20235;-95
2022/07/07 09:21:08;;;;;;;0.70;0.70;;;17.10;99.90;;;;;;4959982;28;20660;-96
2022/07/07 09:23:55;;;;;;;1.30;0.80;;;17.10;99.90;;;;;;4944267;29;20208;-95
2022/07/07 09:26:38;;;;;;;2.20;0.83;;;17.10;99.90;;;;;;4962818;28;20203;-96
2022/07/07 09:29:17;;;;;;;3.10;0.70;;;17.10;99.90;;;;;;4961624;28;20336;-95
2022/07/07 09:31:54;;;;;;;1.90;0.80;;;17.10;99.90;;;;;;4960619;28;20215;-95
2022/07/07 09:34:30;;;;;;;0.93;0.70;;;17.00;99.90;;;;;;4963385;28;20611;-95
2022/07/07 09:39:54;;;;;;;0.87;0.60;;;17.00;99.90;;;;;;4964280;28;20236;-96
2022/07/07 09:42:43;;;;;;;0.80;0.60;;;16.90;99.90;;;;;;4988989;28;20226;-96
2022/07/07 09:45:19;;;;;;;1.20;0.80;;;16.90;99.90;;;;;;4996837;28;20254;-96
2022/07/07 09:47:51;;;;;;;2.00;0.67;;;16.90;99.90;;;;;;4997020;28;20194;-96
2022/07/07 09:50:23;;;;;;;0.50;0.50;;;16.90;99.90;;;;;;4996116;28;20223;-96
2022/07/07 09:52:54;;;;;;;0.90;0.80;;;16.90;99.90;;;;;;4996855;28;20222;-96
2022/07/07 09:55:25;;;;;;;1.63;0.70;;;16.80;99.90;;;;;;4996686;28;20198;-96
2022/07/07 09:57:58;;;;;;;3.10;0.80;;;16.80;99.90;;;;;;5000591;28;20247;-96
2022/07/07 10:00:31;;;;;;;1.33;0.63;;;16.80;99.90;;;;;;4996758;28;20211;-96
2022/07/07 10:03:04;;;;;;;1.63;0.93;;;16.90;99.90;;;;;;5000102;28;20199;-96
2022/07/07 10:05:36;;;;;;;0.97;0.87;;;16.70;99.90;;;;;;4998289;28;20223;-96
2022/07/07 10:08:08;;;;;;;0.90;0.80;;;16.70;99.90;;;;;;4996272;28;20247;-96
2022/07/07 10:10:40;;;;;;;0.60;0.60;;;16.60;99.90;;;;;;4993968;28;20246;-96
2022/07/07 10:13:11;;;;;;;1.50;0.80;;;16.60;99.90;;;;;;5007889;28;20211;-96
2022/07/07 10:15:44;;;;;;;2.13;0.97;;;16.60;99.90;;;;;;4988016;28;20210;-96
2022/07/07 10:18:18;;;;;;;1.10;0.70;;;16.60;99.90;;;;;;5001602;28;20253;-96
2022/07/07 10:20:50;;;;;;;0.97;0.70;;;16.60;99.90;;;;;;5000976;28;20221;-96
2022/07/07 10:23:22;;;;;;;0.77;0.70;;;16.60;99.90;;;;;;5001101;28;20241;-96
2022/07/07 10:26:04;;;;;;;3.07;0.80;;;16.60;99.90;;;;;;5001197;28;20217;-96
2022/07/07 10:29:06;;;;;;;1.03;0.77;;;16.60;99.90;;;;;;5002525;28;20217;-96
2022/07/07 10:31:40;;;;;;;1.13;1.00;;;16.50;99.90;;;;;;4922059;29;20260;-96
2022/07/07 10:34:14;;;;;;;1.20;0.70;;;16.50;99.90;;;;;;4990111;28;20217;-96
2022/07/07 10:37:04;;;;;;;0.90;0.80;;;16.50;99.90;;;;;;5001255;28;20214;-94
2022/07/07 10:39:48;;;;;;;1.80;0.90;;;16.50;99.90;;;;;;5001688;28;20230;-96
2022/07/07 10:42:53;;;;;;;0.80;0.67;;;16.50;99.90;;;;;;4985171;28;20215;-96
2022/07/07 10:45:25;;;;;;;1.80;0.70;;;16.50;99.90;;;;;;4981350;28;20233;-96
2022/07/07 10:47:59;;;;;;;1.13;0.73;;;16.50;99.90;;;;;;4981412;28;20639;-96
2022/07/07 10:50:35;;;;;;;0.83;0.77;;;16.60;99.90;;;;;;4980609;28;20207;-96
2022/07/07 10:53:33;;;;;;;2.03;0.93;;;16.60;99.90;;;;;;4981015;28;20620;-96
2022/07/07 10:56:05;;;;;;;0.93;0.87;;;16.60;99.90;;;;;;4981388;28;20217;-96
2022/07/07 10:58:58;;;;;;;2.40;0.90;;;16.60;99.90;;;;;;4964832;28;20281;-96
2022/07/07 11:01:32;;;;;;;1.23;0.90;;;16.70;99.90;;;;;;4980572;28;20221;-96
2022/07/07 11:04:05;;;;;;;1.33;0.83;;;16.70;99.90;;;;;;4981339;28;20218;-96
2022/07/07 11:07:09;;;;;;;1.13;0.80;;;16.70;99.90;;;;;;4980989;28;20309;-96
2022/07/07 11:09:59;;;;;;;0.80;0.80;;;16.70;99.90;;;;;;4981375;28;20561;-96
2022/07/07 11:12:39;;;;;;;1.03;0.80;;;16.70;99.90;;;;;;4980950;28;20242;-96
2022/07/07 11:15:38;;;;;;;1.20;0.87;;;16.80;99.90;;;;;;4980691;28;20214;-96
2022/07/07 11:18:15;;;;;;;1.47;1.10;;;16.80;99.90;;;;;;4968172;28;20202;-96
2022/07/07 11:21:00;;;;;;;0.90;0.67;;;16.70;99.90;;;;;;4979650;28;20203;-96
2022/07/07 11:23:49;;;;;;;1.50;1.00;;;16.70;99.90;;;;;;4980811;28;20556;-96
2022/07/07 11:26:23;;;;;;;1.23;1.00;;;16.70;99.90;;;;;;4980632;28;20261;-96
2022/07/07 11:28:57;;;;;;;1.47;0.97;;;16.80;99.90;;;;;;4981990;28;20258;-96
2022/07/07 11:31:30;;;;;;;2.37;0.87;;;16.70;99.90;;;;;;4981678;28;20202;-96
2022/07/07 11:34:02;;;;;;;1.20;1.10;;;16.70;99.90;;;;;;4980370;28;20226;-96
2022/07/07 11:36:37;;;;;;;1.67;1.30;;;16.60;99.90;;;;;;4982757;28;20270;-96
2022/07/07 11:39:09;;;;;;;1.10;1.00;;;16.60;99.90;;;;;;4986081;28;20234;-96
2022/07/07 11:41:43;;;;;;;2.67;1.00;;;16.50;99.90;;;;;;4996748;28;20194;-96
2022/07/07 11:44:22;;;;;;;1.07;0.97;;;16.50;99.90;;;;;;4998359;28;20234;-96
2022/07/07 11:46:54;;;;;;;2.70;1.10;;;16.50;99.90;;;;;;4998435;28;20207;-96
2022/07/07 11:49:25;;;;;;;1.27;1.00;;;16.50;99.90;;;;;;4998435;28;20203;-96
2022/07/07 11:51:59;;;;;;;2.27;1.07;;;16.50;99.90;;;;;;4989376;28;20215;-96
2022/07/07 11:54:32;;;;;;;1.73;1.00;;;16.40;99.90;;;;;;4988750;28;20218;-96
2022/07/07 11:57:06;;;;;;;1.67;0.90;;;16.30;99.90;;;;;;4982792;28;20583;-96
2022/07/07 11:59:41;;;;;;;2.30;1.03;;;16.30;99.90;;;;;;4979916;28;20573;-96
2022/07/07 12:02:19;;;;;;;1.83;0.97;;;16.30;99.90;;;;;;4984005;28;20261;-96
2022/07/07 12:04:55;;;;;;;1.37;0.93;;;16.40;99.90;;;;;;4981884;28;20210;-96
2022/07/07 12:07:29;;;;;;;1.67;0.97;;;16.40;99.90;;;;;;4979481;28;20241;-95
2022/07/07 12:10:01;;;;;;;1.50;1.00;;;16.40;99.90;;;;;;4978239;28;20226;-96
2022/07/07 12:12:33;;;;;;;1.33;1.10;;;16.40;99.90;;;;;;4995437;28;20218;-96
2022/07/07 12:15:08;;;;;;;1.03;0.90;;;16.40;99.90;;;;;;4998130;28;20218;-95
2022/07/07 12:17:43;;;;;;;1.53;0.73;;;16.40;99.90;;;;;;4997714;28;20222;-95
2022/07/07 12:20:19;;;;;;;1.83;1.00;;;16.40;99.90;;;;;;4996866;28;20265;-95
2022/07/07 12:22:58;;;;;;;1.27;0.90;;;16.40;99.90;;;;;;4998336;28;20579;-95
2022/07/07 12:25:33;;;;;;;1.10;0.87;;;16.40;99.90;;;;;;4998149;28;20242;-96
2022/07/07 12:28:13;;;;;;;2.47;0.90;;;16.40;99.90;;;;;;4998210;28;20199;-95
2022/07/07 12:30:54;;;;;;;0.83;0.77;;;16.40;99.90;;;;;;4999318;28;20264;-96
2022/07/07 12:33:29;;;;;;;1.10;0.80;;;16.50;99.90;;;;;;4998344;28;20210;-96
2022/07/07 12:36:08;;;;;;;1.00;0.90;;;16.40;99.90;;;;;;4997770;28;20206;-96
2022/07/07 12:38:44;;;;;;;1.83;1.03;;;16.50;99.90;;;;;;4987286;28;20216;-96
2022/07/07 12:41:26;;;;;;;1.03;0.60;;;16.50;99.90;;;;;;4964046;28;20266;-96
2022/07/07 12:44:13;;;;;;;0.90;0.80;;;16.50;99.90;;;;;;4963820;28;20215;-96
2022/07/07 12:47:05;;;;;;;2.17;0.90;;;16.50;99.90;;;;;;4960246;28;20286;-96
2022/07/07 12:49:37;;;;;;;1.23;1.10;;;16.50;99.90;;;;;;4959273;28;20219;-96
2022/07/07 12:52:14;;;;;;;1.13;0.93;;;16.50;99.90;;;;;;4959135;28;20578;-96
2022/07/07 12:55:10;;;;;;;1.77;0.70;;;16.50;99.90;;;;;;4959307;28;20219;-96
2022/07/07 12:57:43;;;;;;;0.83;0.83;;;16.50;99.90;;;;;;4963035;28;20574;-96
2022/07/07 13:00:26;;;;;;;3.00;1.20;;;16.50;99.90;;;;;;4959257;28;20254;-96
2022/07/07 13:02:57;;;;;;;1.13;1.03;;;16.50;99.90;;;;;;4959527;28;20207;-96
2022/07/07 13:05:29;;;;;;;0.80;0.80;;;16.50;99.90;;;;;;4990897;28;20214;-96
2022/07/07 13:08:01;;;;;;;0.90;0.80;;;16.50;99.90;;;;;;4997779;28;20791;-96
2022/07/07 13:10:36;;;;;;;1.93;1.00;;;16.60;99.90;;;;;;4996991;28;20206;-96
2022/07/07 13:15:54;;;;;;;1.10;1.00;;;16.50;99.90;;;;;;4998774;28;20253;-96
2022/07/07 13:18:27;;;;;;;2.27;1.10;;;16.50;99.90;;;;;;4999343;28;20198;-96
2022/07/07 13:21:03;;;;;;;1.10;0.90;;;16.40;99.90;;;;;;4997495;28;20249;-96
2022/07/07 13:23:35;;;;;;;1.17;0.83;;;16.30;99.90;;;;;;5000889;28;20272;-95
2022/07/07 13:26:11;;;;;;;0.93;0.83;;;16.40;99.90;;;;;;4998141;28;20218;-96
2022/07/07 13:28:46;;;;;;;1.67;1.23;;;16.50;99.90;;;;;;5001763;28;20213;-96
2022/07/07 13:31:19;;;;;;;2.40;0.97;;;16.50;99.90;;;;;;5006038;28;20224;-96
2022/07/07 13:33:51;;;;;;;2.23;0.90;;;16.50;99.90;;;;;;5004507;28;20214;-96
2022/07/07 13:36:24;;;;;;;1.07;0.90;;;16.60;99.90;;;;;;5005478;28;20264;-95
2022/07/07 13:38:55;;;;;;;1.63;1.10;;;16.70;99.90;;;;;;5006795;28;20214;-96
2022/07/07 13:41:29;;;;;;;1.90;1.10;;;16.70;99.90;;;;;;4996485;28;20717;-95
2022/07/07 13:44:07;;;;;;;2.03;1.10;;;16.70;99.90;;;;;;4987475;28;20342;-96
2022/07/07 13:46:41;;;;;;;1.10;1.00;;;16.70;99.90;;;;;;4985919;28;20210;-96
2022/07/07 13:49:13;;;;;;;1.30;1.00;;;16.80;99.90;;;;;;4984200;28;20207;-96
2022/07/07 13:51:50;;;;;;;2.30;1.20;;;16.80;99.90;;;;;;4984055;28;20220;-96
2022/07/07 13:54:38;;;;;;;4.83;1.20;;;16.80;99.90;;;;;;4986988;28;20219;-96
2022/07/07 13:57:12;;;;;;;2.00;1.20;;;16.90;99.90;;;;;;4985547;28;20221;-96
2022/07/07 13:59:44;;;;;;;4.63;1.07;;;17.00;99.90;;;;;;4984428;28;20239;-96
2022/07/07 14:02:17;;;;;;;2.17;1.20;;;17.00;99.90;;;;;;4982290;28;20215;-96
2022/07/07 14:04:57;;;;;;;1.67;1.30;;;17.00;99.90;;;;;;4987821;28;20211;-96
2022/07/07 14:07:29;;;;;;;1.90;1.30;;;17.10;99.90;;;;;;4981922;28;20219;-96
2022/07/07 14:10:01;;;;;;;2.37;1.20;;;17.00;99.90;;;;;;4981703;28;20226;-96
2022/07/07 14:12:37;;;;;;;1.33;1.10;;;17.10;99.90;;;;;;4999593;28;20206;-96
2022/07/07 14:15:10;;;;;;;1.00;0.90;;;17.10;99.90;;;;;;5003276;28;20217;-96
2022/07/07 14:17:41;;;;;;;1.30;0.80;;;17.10;99.90;;;;;;5016322;28;20198;-96
2022/07/07 14:20:14;;;;;;;0.80;0.70;;;17.10;99.90;;;;;;5018782;28;20294;-96
2022/07/07 14:22:49;;;;;;;1.50;0.80;;;17.10;99.90;;;;;;5018872;28;20243;-96
2022/07/07 14:25:22;;;;;;;0.90;0.70;;;17.00;99.90;;;;;;5011400;28;20214;-96
2022/07/07 14:27:58;;;;;;;1.13;0.77;;;17.00;99.90;;;;;;5010509;28;20257;-95
2022/07/07 14:30:29;;;;;;;0.90;0.77;;;17.10;99.90;;;;;;4990752;28;20216;-95
2022/07/07 14:33:01;;;;;;;0.80;0.60;;;17.10;99.90;;;;;;5002989;28;20269;-96
2022/07/07 14:35:33;;;;;;;0.97;0.60;;;17.20;99.90;;;;;;5013098;23;20239;-96
2022/07/07 14:38:05;;;;;;;1.23;0.70;;;17.20;99.90;;;;;;4981415;28;20221;-96
2022/07/07 14:40:38;;;;;;;0.90;0.60;;;17.30;99.90;;;;;;4980223;28;20290;-95
2022/07/07 14:43:14;;;;;;;0.80;0.70;;;17.30;99.90;;;;;;4979468;28;20210;-94
2022/07/07 14:45:47;;;;;;;1.37;0.77;;;17.40;99.90;;;;;;4965421;28;20191;-96
2022/07/07 14:48:19;;;;;;;0.70;0.70;;;17.50;99.90;;;;;;4980629;28;20261;-96
2022/07/07 14:50:51;;;;;;;0.93;0.60;;;17.60;99.90;;;;;;4979957;28;20229;-96
2022/07/07 14:53:22;;;;;;;0.73;0.73;;;17.90;99.90;;;;;;4980436;28;20215;-96
2022/07/07 14:55:53;;;;;;;0.77;0.70;;;18.20;99.90;;;;;;4980339;28;20214;-96
2022/07/07 14:58:34;;;;;;;1.80;0.50;;;18.50;99.90;;;;;;4981363;28;20214;-96
2022/07/07 15:01:11;;;;;;;1.20;0.50;;;18.80;99.90;;;;;;4980025;28;20241;-96
2022/07/07 15:03:43;;;;;;;1.40;0.47;;;19.20;99.90;;;;;;4980666;28;20203;-96
2022/07/07 15:06:17;;;;;;;0.23;0.23;;;19.60;99.90;;;;;;4980768;28;20215;-96
2022/07/07 15:08:48;;;;;;;0.97;0.40;;;20.00;99.90;;;;;;4981054;28;20281;-96
2022/07/07 15:11:20;;;;;;;0.50;0.43;;;20.20;99.90;;;;;;4986726;28;20210;-96
2022/07/07 15:13:57;;;;;;;0.53;0.50;;;20.50;99.90;;;;;;5000704;28;20238;-96
2022/07/07 15:16:34;;;;;;;0.60;0.50;;;21.20;99.90;;;;;;5001283;28;20209;-96
2022/07/07 15:19:07;;;;;;;1.07;0.53;;;20.70;99.90;;;;;;5000366;28;20213;-96
2022/07/07 15:21:40;;;;;;;0.67;0.40;;;20.20;99.90;;;;;;4998784;28;20650;-96
2022/07/07 15:24:13;;;;;;;1.50;0.57;;;19.60;99.90;;;;;;5000517;28;20277;-96
2022/07/07 15:26:49;;;;;;;0.40;0.40;;;19.70;99.90;;;;;;5011239;28;20217;-96
2022/07/07 15:29:26;;;;;;;0.97;0.40;;;20.00;99.90;;;;;;5004010;28;20213;-96
2022/07/07 15:32:06;;;;;;;0.30;0.30;;;19.60;99.90;;;;;;5000860;28;20270;-96